Flight Track Log - Related Links

Times and Time Zones

All times are in EDT time to prevent confusion due to time zone crossing. See the UPS2958 flight status page for this flight to view local times or setup timezone preferences in your user account.

Time Position Orientation Groundspeed Altitude Reporting Facility
EDT Latitude Longitude Course Direction KTS MPH feet Rate Location/Type
Tue 03:56:49 PM 38.1242 -85.7394 189° South 189 217 2,400  Level FAA TRACON SMA TRACON (SMA)
Tue 03:57:32 PM 38.0806 -85.7481 233° Southwest 240 276 3,600 2,325 Climbing FAA TRACON SMA TRACON (SMA)
Tue 03:58:09 PM 38.0556 -85.7903 275° West 258 297 5,500 3,195 Climbing FAA TRACON SMA TRACON (SMA)
Tue 03:58:49 PM 38.0597 -85.8550 276° West 270 311 7,700 3,075 Climbing FAA TRACON SMA TRACON (SMA)
Tue 03:59:29 PM 38.0658 -85.9253 272° West 293 337 9,600 2,175 Climbing FAA TRACON SMA TRACON (SMA)
Tue 04:00:09 PM 38.0681 -85.9914 266° West 308 354 10,600 1,500 Climbing FAA TRACON SMA TRACON (SMA)
Tue 04:00:49 PM 38.0633 -86.0761 265° West 357 411 11,600 2,175 Climbing FAA TRACON SMA TRACON (SMA)
Tue 04:01:29 PM 38.0569 -86.1708 266° West 393 452 13,500 2,850 Climbing FAA TRACON SMA TRACON (SMA)
Tue 04:02:09 PM 38.0519 -86.2572 265° West 399 459 15,400 2,815 Climbing FAA TRACON SMA TRACON (SMA)
Tue 04:02:50 PM 38.0447 -86.3575 265° West 415 478 17,300 2,850 Climbing FAA TRACON SMA TRACON (SMA)
Tue 04:03:29 PM 38.0372 -86.4586 267° West 419 482 19,200 2,400 Climbing FAA TRACON SMA TRACON (SMA)
Tue 04:04:00 PM 38.0350 -86.5103 263° West 414 476 20,100 2,110 Climbing Indianapolis Center
Tue 04:05:00 PM 38.0208 -86.6600 264° West 429 494 22,400 2,182 Climbing Indianapolis Center
Tue 04:06:01 PM 38.0081 -86.8231 279° West 448 516 24,500 2,033 Climbing Indianapolis Center
Tue 04:07:01 PM 38.0286 -86.9819 283° West 454 522 26,500 2,083 Climbing Indianapolis Center
Tue 04:08:02 PM 38.0608 -87.1603 285° West 465 535 28,700 1,780 Climbing Indianapolis Center
Tue 04:08:59 PM 38.0933 -87.3203 283° West 470 541 30,000 985 Climbing Indianapolis Center
Tue 04:11:23 PM 38.1611 -87.7022 282° West 467 537 32,000 588 Climbing Kansas City Center
Tue 04:12:23 PM 38.1892 -87.8661 276° West 467 537 32,000 50 Level Kansas City Center
Tue 04:13:23 PM 38.2019 -88.0236 275° West 462 532 32,100 50 Climbing Kansas City Center
Tue 04:14:23 PM 38.2128 -88.1867 275° West 462 532 32,100  Level Kansas City Center
Tue 04:15:23 PM 38.2233 -88.3444 276° West 457 526 32,100  Level Kansas City Center
Tue 04:16:23 PM 38.2356 -88.5019 275° West 457 526 32,100  Level Kansas City Center
Tue 04:17:23 PM 38.2475 -88.6622 275° West 457 526 32,100  Level Kansas City Center
Tue 04:18:23 PM 38.2597 -88.8281 273° West 462 532 32,100  Level Kansas City Center
Tue 04:19:23 PM 38.2664 -88.9703 276° West 462 532 32,100  Level Kansas City Center
Tue 04:20:23 PM 38.2808 -89.1492 274° West 462 532 32,100  Level Kansas City Center
Tue 04:21:23 PM 38.2894 -89.2967 274° West 462 532 32,100  Level Kansas City Center
Tue 04:22:23 PM 38.2992 -89.4761 276° West 462 532 32,100  Level Kansas City Center
Tue 04:23:23 PM 38.3117 -89.6261 274° West 462 532 32,100  Level Kansas City Center
Tue 04:24:23 PM 38.3211 -89.8053 275° West 457 526 32,100 350 Level Kansas City Center
Tue 04:25:23 PM 38.3308 -89.9503 275° West 457 526 32,800 950 Climbing Kansas City Center
Tue 04:26:23 PM 38.3417 -90.1244 274° West 457 526 34,000 650 Climbing Kansas City Center
Tue 04:27:23 PM 38.3486 -90.2644 274° West 457 526 34,100 50 Climbing Kansas City Center
Tue 04:28:23 PM 38.3589 -90.4386 274° West 457 526 34,100  Level Kansas City Center
Tue 04:29:23 PM 38.3656 -90.5786 274° West 452 520 34,100  Level Kansas City Center
Tue 04:30:23 PM 38.3750 -90.7369 274° West 452 520 34,100  Level Kansas City Center
Tue 04:31:23 PM 38.3844 -90.9086 274° West 452 520 34,100  Level Kansas City Center
Tue 04:32:23 PM 38.3928 -91.0489 273° West 452 520 34,100  Level Kansas City Center
Tue 04:33:24 PM 38.3994 -91.2075 274° West 447 514 34,100  Level Kansas City Center
Tue 04:34:23 PM 38.4072 -91.3450 274° West 447 514 34,100  Level Kansas City Center
Tue 04:35:23 PM 38.4186 -91.5406 273° West 452 520 34,100  Level Kansas City Center
Tue 04:36:23 PM 38.4244 -91.6992 274° West 457 526 34,100  Level Kansas City Center
Tue 04:37:23 PM 38.4322 -91.8553 273° West 457 526 34,100  Level Kansas City Center
Tue 04:38:24 PM 38.4397 -92.0142 273° West 457 526 34,100  Level Kansas City Center
Tue 04:39:24 PM 38.4450 -92.1706 274° West 457 526 34,100  Level Kansas City Center
Tue 04:40:23 PM 38.4542 -92.3319 272° West 457 526 34,100  Level Kansas City Center
Tue 04:41:23 PM 38.4592 -92.4883 273° West 452 520 34,100  Level Kansas City Center
Tue 04:42:23 PM 38.4658 -92.6444 272° West 452 520 34,100  Level Kansas City Center
Tue 04:43:23 PM 38.4703 -92.8008 273° West 452 520 34,100  Level Kansas City Center
Tue 04:44:23 PM 38.4761 -92.9281 272° West 452 520 34,100  Level Kansas City Center
Tue 04:45:24 PM 38.4806 -93.1161 273° West 447 514 34,100  Level Kansas City Center
Tue 04:46:23 PM 38.4864 -93.2725 271° West 447 514 34,100  Level Kansas City Center
Tue 04:47:24 PM 38.4881 -93.4292 274° West 447 514 34,100  Level Kansas City Center
Tue 04:48:24 PM 38.4956 -93.5881 272° West 447 514 34,100  Level Kansas City Center
Tue 04:49:23 PM 38.4989 -93.7447 269° West 442 509 34,100  Level Kansas City Center
Tue 04:50:23 PM 38.4975 -93.8986 272° West 437 503 34,100  Level Kansas City Center
Tue 04:51:24 PM 38.5025 -94.0522 271° West 437 503 34,100 -50 Level Kansas City Center
Tue 04:52:24 PM 38.5050 -94.1956 272° West 443 510 34,000 -50 Descending Kansas City Center
Tue 04:53:24 PM 38.5094 -94.3467 272° West 436 502 34,000 50 Level Kansas City Center
Tue 04:54:23 PM 38.5136 -94.5192 271° West 442 509 34,100 50 Climbing Kansas City Center
Tue 04:55:24 PM 38.5156 -94.6731 271° West 442 509 34,100  Level Kansas City Center
Tue 04:56:23 PM 38.5175 -94.8297 272° West 442 509 34,100  Level Kansas City Center
Tue 04:57:24 PM 38.5211 -94.9731 272° West 442 509 34,100  Level Kansas City Center
Tue 04:58:24 PM 38.5244 -95.1403 272° West 442 509 34,100  Level Kansas City Center
Tue 04:59:24 PM 38.5278 -95.2969 270° West 442 509 34,100  Level Kansas City Center
Tue 05:00:23 PM 38.5286 -95.4589 271° West 447 514 34,100  Level Kansas City Center
Tue 05:01:24 PM 38.5297 -95.5994 271° West 452 520 34,100  Level Kansas City Center
Tue 05:02:24 PM 38.5322 -95.7533 271° West 452 520 34,100  Level Kansas City Center
Tue 05:03:24 PM 38.5347 -95.9100 270° West 447 514 34,100  Level Kansas City Center
Tue 05:04:23 PM 38.5347 -96.0667 271° West 442 509 34,100  Level Kansas City Center
Tue 05:05:23 PM 38.5367 -96.2392 271° West 442 509 34,100  Level Kansas City Center
Tue 05:06:24 PM 38.5383 -96.3958 271° West 442 509 34,100  Level Kansas City Center
Tue 05:07:23 PM 38.5400 -96.5500 270° West 442 509 34,100  Level Kansas City Center
Tue 05:08:24 PM 38.5394 -96.7064 271° West 442 509 34,100  Level Kansas City Center
Tue 05:09:24 PM 38.5406 -96.8631 271° West 437 503 34,100  Level Kansas City Center
Tue 05:10:24 PM 38.5419 -97.0014 270° West 437 503 34,100  Level Kansas City Center
Tue 05:11:23 PM 38.5408 -97.1553 270° West 442 509 34,100  Level Kansas City Center
Tue 05:12:23 PM 38.5411 -97.3225 269° West 436 502 34,100  Level Kansas City Center
Tue 05:13:24 PM 38.5394 -97.4789 270° West 442 509 34,100  Level Kansas City Center
Tue 05:14:23 PM 38.5400 -97.6169 269° West 442 509 34,100  Level Kansas City Center
Tue 05:15:23 PM 38.5381 -97.7736 270° West 442 509 34,100  Level Kansas City Center
Tue 05:16:23 PM 38.5378 -97.9275 270° West 442 509 34,100  Level Kansas City Center
Tue 05:17:23 PM 38.5375 -98.0842 269° West 442 509 34,100  Level Kansas City Center
Tue 05:18:23 PM 38.5347 -98.2381 270° West 442 509 34,100  Level Kansas City Center
Tue 05:19:23 PM 38.5339 -98.3944 269° West 442 509 34,100  Level Kansas City Center
Tue 05:20:23 PM 38.5308 -98.5511 269° West 442 509 34,100  Level Kansas City Center
Tue 05:21:23 PM 38.5278 -98.7047 269° West 442 509 34,100  Level Kansas City Center
Tue 05:22:23 PM 38.5261 -98.8614 268° West 442 509 34,100  Level Kansas City Center
Tue 05:23:23 PM 38.5225 -99.0178 269° West 442 509 34,100  Level Kansas City Center
Tue 05:24:23 PM 38.5206 -99.1742 269° West 442 509 34,100  Level Kansas City Center
Tue 05:25:24 PM 38.5186 -99.3306 268° West 442 509 34,100  Level Kansas City Center
Tue 05:26:23 PM 38.5142 -99.4869 268° West 442 509 34,100  Level Kansas City Center
Tue 05:27:23 PM 38.5092 -99.6564 268° West 437 503 34,100  Level Kansas City Center
Tue 05:28:23 PM 38.5044 -99.8128 269° West 450 518 34,100  Level Kansas City Center
Tue 05:29:23 PM 38.5022 -99.9558 264° West 450 518 34,100  Level Kansas City Center
Tue 05:30:23 PM 38.4878 -100.1300 263° West 450 518 34,100  Level Kansas City Center
Tue 05:31:23 PM 38.4719 -100.2878 263° West 455 524 34,100  Level Kansas City Center
Tue 05:32:23 PM 38.4558 -100.4458 262° West 455 524 34,100  Level Kansas City Center
Tue 05:33:24 PM 38.4406 -100.5850 262° West 460 529 34,100  Level Kansas City Center
Tue 05:34:55 PM 38.4119 -100.8378 262° West 451 519 34,100  Level Denver Center
Tue 05:35:57 PM 38.3961 -100.9886 262° West 452 520 34,100  Level Denver Center
Tue 05:37:00 PM 38.3769 -101.1628 262° West 449 517 34,100  Level Denver Center
Tue 05:38:02 PM 38.3597 -101.3131 262° West 449 517 34,100  Level Denver Center
Tue 05:39:04 PM 38.3400 -101.4903 262° West 452 520 34,100  Level Denver Center
Tue 05:40:07 PM 38.3200 -101.6664 261° West 451 519 34,100  Level Denver Center
Tue 05:41:09 PM 38.3019 -101.8161 262° West 450 518 34,100  Level Denver Center
Tue 05:42:11 PM 38.2814 -101.9917 262° West 449 517 34,100  Level Denver Center
Tue 05:43:14 PM 38.2642 -102.1408 261° West 448 516 34,100  Level Denver Center
Tue 05:44:16 PM 38.2428 -102.3150 261° West 447 514 34,100  Level Denver Center
Tue 05:45:18 PM 38.2244 -102.4639 261° West 447 514 34,100  Level Denver Center
Tue 05:46:21 PM 38.2039 -102.6378 264° West 446 513 34,100  Level Denver Center
Tue 05:47:23 PM 38.1906 -102.7878 268° West 446 513 34,100  Level Denver Center
Tue 05:48:26 PM 38.1850 -102.9622 266° West 444 511 34,100  Level Denver Center
Tue 05:49:28 PM 38.1767 -103.1136 267° West 447 514 34,100  Level Denver Center
Tue 05:50:30 PM 38.1686 -103.2947 266° West 449 517 34,100  Level Denver Center
Tue 05:51:33 PM 38.1611 -103.4464 266° West 450 518 34,100  Level Denver Center
Tue 05:52:35 PM 38.1511 -103.6225 266° West 450 518 34,100  Level Denver Center
Tue 05:53:38 PM 38.1431 -103.7733 266° West 449 517 34,100  Level Denver Center
Tue 05:54:40 PM 38.1328 -103.9497 266° West 450 518 34,100  Level Denver Center
Tue 05:55:43 PM 38.1242 -104.1014 266° West 451 519 34,100  Level Denver Center
Tue 05:56:45 PM 38.1139 -104.2769 266° West 449 517 34,100  Level Denver Center
Tue 05:57:48 PM 38.1053 -104.4256 265° West 446 513 34,100  Level Denver Center
Tue 05:58:50 PM 38.0942 -104.6025 265° West 450 518 34,100  Level Denver Center
Tue 05:59:53 PM 38.0844 -104.7514 266° West 447 514 34,100  Level Denver Center
Tue 06:00:56 PM 38.0742 -104.9239 265° West 443 510 34,100  Level Denver Center
Tue 06:01:58 PM 38.0642 -105.0714 265° West 440 506 34,100  Level Denver Center
Tue 06:03:01 PM 38.0531 -105.2425 265° West 438 504 34,100  Level Denver Center
Tue 06:04:03 PM 38.0417 -105.4139 265° West 438 504 34,100  Level Denver Center
Tue 06:05:06 PM 38.0314 -105.5592 265° West 435 501 34,100  Level Denver Center
Tue 06:06:08 PM 38.0197 -105.7283 265° West 433 498 34,100  Level Denver Center
Tue 06:07:11 PM 38.0094 -105.8742 265° West 433 498 34,100  Level Denver Center
Tue 06:08:13 PM 37.9986 -106.0428 272° West 431 496 34,100  Level Denver Center
Tue 06:09:16 PM 38.0019 -106.1878 272° West 431 496 34,100  Level Denver Center
Tue 06:10:18 PM 38.0056 -106.3558 271° West 428 493 34,100  Level Denver Center
Tue 06:11:21 PM 38.0075 -106.5014 271° West 431 496 34,100  Level Denver Center
Tue 06:12:23 PM 38.0094 -106.6711 271° West 434 499 34,100  Level Denver Center
Tue 06:13:26 PM 38.0106 -106.8164 271° West 431 496 34,100  Level Denver Center
Tue 06:14:29 PM 38.0128 -106.9858 271° West 430 495 34,100  Level Denver Center
Tue 06:15:31 PM 38.0139 -107.1328 271° West 433 498 34,100  Level Denver Center
Tue 06:16:34 PM 38.0153 -107.3019 270° West 431 496 34,100  Level Denver Center
Tue 06:17:36 PM 38.0158 -107.4469 270° West 431 496 34,100  Level Denver Center
Tue 06:18:39 PM 38.0164 -107.6183 270° West 432 497 34,100  Level Denver Center
Tue 06:19:41 PM 38.0158 -107.7656 271° West 434 499 34,100  Level Denver Center
Tue 06:20:44 PM 38.0169 -107.9356 270° West 433 498 34,100  Level Denver Center
Tue 06:21:46 PM 38.0161 -108.0806 270° West 432 497 34,100  Level Denver Center
Tue 06:22:49 PM 38.0158 -108.2453 270° West 427 491 34,100  Level Denver Center
Tue 06:23:51 PM 38.0158 -108.3875 270° West 424 488 34,100  Level Denver Center
Tue 06:24:54 PM 38.0147 -108.5550 270° West 424 488 34,100  Level Denver Center
Tue 06:25:57 PM 38.0142 -108.6997 270° West 425 489 34,100  Level Denver Center
Tue 06:26:59 PM 38.0133 -108.8683 269° West 426 490 34,100  Level Denver Center
Tue 06:28:02 PM 38.0119 -109.0153 269° West 426 490 34,100  Level Denver Center
Tue 06:29:04 PM 38.0106 -109.1681 269° West 428 493 34,100  Level Denver Center
Tue 06:30:07 PM 38.0092 -109.3214 269° West 429 494 34,100  Level Denver Center
Tue 06:31:09 PM 38.0078 -109.4933 269° West 425 489 34,100  Level Denver Center
Tue 06:32:12 PM 38.0053 -109.6344 269° West 421 484 34,100  Level Denver Center
Tue 06:33:14 PM 38.0031 -109.7964 269° West 415 478 34,100  Level Denver Center
Tue 06:34:17 PM 38.0006 -109.9361 274° West 415 478 34,100  Level Denver Center
Tue 06:35:20 PM 38.0092 -110.0958 278° West 409 471 34,100  Level Denver Center
Tue 06:36:22 PM 38.0269 -110.2589 278° West 415 478 34,100  Level Denver Center
Tue 06:37:25 PM 38.0417 -110.3975 277° West 415 478 34,100  Level Denver Center
Tue 06:38:27 PM 38.0578 -110.5600 277° West 415 478 34,100  Level Denver Center
Tue 06:39:30 PM 38.0719 -110.6986 277° West 415 478 34,100  Level Denver Center
Tue 06:40:32 PM 38.0867 -110.8600 277° West 413 475 34,100  Level Denver Center
Tue 06:41:51 PM 38.1022 -111.0333 278° West 413 475 34,100  Level Salt Lake Center
Tue 06:42:53 PM 38.1178 -111.1814 278° West 414 476 34,100  Level Salt Lake Center
Tue 06:43:55 PM 38.1331 -111.3289 277° West 416 479 34,100  Level Salt Lake Center
Tue 06:44:57 PM 38.1467 -111.4756 277° West 414 476 34,100  Level Salt Lake Center
Tue 06:45:59 PM 38.1597 -111.6219 277° West 413 475 34,100  Level Salt Lake Center
Tue 06:47:01 PM 38.1756 -111.7969 277° West 411 473 34,100  Level Salt Lake Center
Tue 06:48:03 PM 38.1889 -111.9431 276° West 411 473 34,100  Level Salt Lake Center
Tue 06:49:05 PM 38.2017 -112.0886 276° West 410 472 34,100  Level Salt Lake Center
Tue 06:50:07 PM 38.2144 -112.2331 276° West 409 471 34,100  Level Salt Lake Center
Tue 06:51:09 PM 38.2264 -112.3781 276° West 408 470 34,100 -48 Level Salt Lake Center
Tue 06:52:11 PM 38.2381 -112.5222 276° West 406 467 34,000  Descending Salt Lake Center
Tue 06:53:13 PM 38.2500 -112.6672 276° West 407 468 34,100 48 Climbing Salt Lake Center
Tue 06:54:15 PM 38.2622 -112.8122 276° West 408 470 34,100  Level Salt Lake Center
Tue 06:55:17 PM 38.2744 -112.9578 276° West 408 470 34,100  Level Salt Lake Center
Tue 06:56:19 PM 38.2858 -113.1022 276° West 408 470 34,100  Level Salt Lake Center
Tue 06:57:20 PM 38.2969 -113.2467 276° West 406 467 34,100  Level Salt Lake Center
Tue 06:58:22 PM 38.3100 -113.4192 276° West 405 466 34,100  Level Salt Lake Center
Tue 06:59:24 PM 38.3208 -113.5619 275° West 403 464 34,100  Level Salt Lake Center
Tue 07:00:26 PM 38.3311 -113.7053 275° West 402 463 34,100  Level Salt Lake Center
Tue 07:01:28 PM 38.3414 -113.8478 275° West 401 461 34,100  Level Salt Lake Center
Tue 07:02:30 PM 38.3519 -113.9908 275° West 400 460 34,100  Level Salt Lake Center
Tue 07:03:32 PM 38.3622 -114.1356 275° West 403 464 34,100  Level Salt Lake Center
Tue 07:04:34 PM 38.3714 -114.2789 275° West 403 464 34,100  Level Salt Lake Center
Tue 07:05:36 PM 38.3808 -114.4228 275° West 402 463 34,100  Level Salt Lake Center
Tue 07:06:38 PM 38.3903 -114.5667 275° West 402 463 34,100  Level Salt Lake Center
Tue 07:07:40 PM 38.4000 -114.7103 275° West 402 463 34,100 -48 Level Salt Lake Center
Tue 07:08:42 PM 38.4089 -114.8519 274° West 398 458 34,000 -48 Descending Salt Lake Center
Tue 07:09:44 PM 38.4175 -114.9942 274° West 397 457 34,000 48 Level Salt Lake Center
Tue 07:10:46 PM 38.4275 -115.1633 275° West 395 455 34,100 48 Climbing Salt Lake Center
Tue 07:11:48 PM 38.4364 -115.3056 274° West 396 456 34,100  Level Salt Lake Center
Tue 07:12:50 PM 38.4444 -115.4497 274° West 403 464 34,100  Level Salt Lake Center
Tue 07:13:52 PM 38.4525 -115.5936 274° West 406 467 34,100  Level Salt Lake Center
Tue 07:14:54 PM 38.4608 -115.7378 274° West 407 468 34,100 -48 Level Salt Lake Center
Tue 07:15:56 PM 38.4686 -115.8800 274° West 405 466 34,000  Descending Salt Lake Center
Tue 07:16:58 PM 38.4761 -116.0222 274° West 403 464 34,100  Climbing Salt Lake Center
Tue 07:18:00 PM 38.4853 -116.1919 274° West 402 463 34,000  Descending Salt Lake Center
Tue 07:19:02 PM 38.4931 -116.3344 273° West 402 463 34,100  Climbing Salt Lake Center
Tue 07:20:04 PM 38.4992 -116.4800 274° West 407 468 34,000  Descending Salt Lake Center
Tue 07:21:06 PM 38.5061 -116.6211 273° West 404 465 34,100 48 Climbing Salt Lake Center
Tue 07:22:09 PM 38.5125 -116.7625 273° West 402 463 34,100  Level Salt Lake Center
Tue 07:23:11 PM 38.5203 -116.9317 274° West 401 461 34,100  Level Salt Lake Center
Tue 07:24:13 PM 38.5269 -117.0717 273° West 399 459 34,100  Level Salt Lake Center
Tue 07:25:15 PM 38.5325 -117.2114 273° West 398 458 34,100  Level Salt Lake Center
Tue 07:26:17 PM 38.5381 -117.3506 274° West 397 457 34,100  Level Salt Lake Center
Tue 07:27:19 PM 38.5447 -117.4897 273° West 396 456 34,100  Level Salt Lake Center
Tue 07:28:21 PM 38.5511 -117.6564 273° West 395 455 34,100  Level Salt Lake Center
Tue 07:29:23 PM 38.5569 -117.7964 273° West 396 456 34,100 -532 Level Salt Lake Center
Tue 07:30:25 PM 38.5619 -117.9350 273° West 394 453 33,000 -1,056 Descending Salt Lake Center
Tue 07:31:28 PM 38.5667 -118.0753 276° West 395 455 31,900 -1,152 Descending Salt Lake Center
Tue 07:32:30 PM 38.5778 -118.2150 275° West 396 456 30,600 -1,161 Descending Salt Lake Center
Tue 07:33:32 PM 38.5878 -118.3553 275° West 397 457 29,500 -774 Descending Salt Lake Center
Tue 07:34:34 PM 38.5978 -118.5094 275° West 399 459 29,000 -722 Descending Salt Lake Center
Tue 07:35:45 PM 38.6081 -118.6747 275° West 402 463 27,900 -1,053 Descending Oakland Center
Tue 07:36:45 PM 38.6169 -118.8153 274° West 402 463 26,700 -1,100 Descending Oakland Center
Tue 07:37:45 PM 38.6236 -118.9558 276° West 402 463 25,700 -976 Descending Oakland Center
Tue 07:38:48 PM 38.6342 -119.0858 273° West 397 457 24,700 -1,000 Descending Oakland Center
Tue 07:39:57 PM 38.6406 -119.2372 276° West 377 434 23,500 -1,023 Descending Oakland Center
Tue 07:40:57 PM 38.6508 -119.3647 273° West 370 426 22,500 -750 Descending Oakland Center
Tue 07:41:57 PM 38.6567 -119.4922 274° West 363 418 22,000 -200 Descending Oakland Center
Tue 07:42:57 PM 38.6644 -119.6331 275° West 363 418 22,100 -50 Climbing Oakland Center
Tue 07:43:57 PM 38.6722 -119.7606 278° West 363 418 21,900 -600 Descending Oakland Center
Tue 07:44:57 PM 38.6858 -119.8853 273° West 363 418 20,900 -950 Descending Oakland Center
Tue 07:45:57 PM 38.6911 -120.0103 273° West 363 418 20,000 -1,300 Descending Oakland Center
Tue 07:46:57 PM 38.6964 -120.1328 274° West 358 412 18,300 -1,850 Descending Oakland Center
Tue 07:47:57 PM 38.7033 -120.2522 275° West 352 405 16,300 -1,950 Descending Oakland Center
Tue 07:48:57 PM 38.7103 -120.3639 274° West 340 391 14,400 -2,200 Descending Oakland Center
Tue 07:49:57 PM 38.7172 -120.4811 276° West 329 379 11,900 -2,150 Descending Oakland Center
Tue 07:50:57 PM 38.7258 -120.5956 276° West 329 379 10,100 -1,000 Descending Oakland Center
Tue 07:51:57 PM 38.7344 -120.6967 275° West 313 360 9,900 -950 Descending Oakland Center
Tue 07:52:57 PM 38.7408 -120.7897 275° West 284 327 8,200 -1,600 Descending Oakland Center
Tue 07:53:57 PM 38.7472 -120.8883 265° West 278 320 6,700 -1,150 Descending Oakland Center
Tue 07:54:57 PM 38.7411 -120.9789 231° Southwest 267 307 5,900 -900 Descending Oakland Center
Tue 07:55:57 PM 38.6994 -121.0453 239° Southwest 245 282 4,900 -1,193 Descending Oakland Center
Tue 07:57:38 PM 38.6500 -121.1500 230° Southwest 187 215 2,700 -1,185 Descending Northern Cal TRACON
Tue 07:58:39 PM 38.6167 -121.2000 230° Southwest 173 199 1,700 -984 Descending Northern Cal TRACON

Login

Don't have an account? Register now (free) for customized features, flight alerts, and more!